Time;durP1;ratioP1;P1;durP2;ratioP2;P2;SDS_P1;SDS_P2;PMS_P1;PMS_P2;Temp;Humidity;BMP_temperature;BMP_pressure;BME280_temperature;BME280_humidity;BME280_pressure;Samples;Min_cycle;Max_cycle;Signal;HPM_P1;HPM_P2
2023/03/12 00:00:30;;;;;;;9.63;4.07;;;2.90;99.90;;;;;;5106581;27;20202;-73
2023/03/12 00:02:56;;;;;;;8.65;4.18;;;2.90;99.90;;;;;;5124310;27;20188;-73
2023/03/12 00:05:24;;;;;;;8.10;3.67;;;2.90;99.90;;;;;;5112655;28;20226;-73
2023/03/12 00:07:51;;;;;;;14.23;4.68;;;2.90;99.90;;;;;;5112784;27;20192;-74
2023/03/12 00:10:18;;;;;;;12.63;5.15;;;2.90;99.90;;;;;;5076270;28;20680;-73
2023/03/12 00:12:44;;;;;;;12.55;6.20;;;2.80;99.90;;;;;;5094389;28;20653;-73
2023/03/12 00:15:09;;;;;;;19.27;8.57;;;2.90;99.90;;;;;;5112463;28;20268;-73
2023/03/12 00:17:35;;;;;;;21.98;9.68;;;2.80;99.90;;;;;;5102300;27;20184;-73
2023/03/12 00:20:02;;;;;;;11.35;6.10;;;2.80;99.90;;;;;;5126753;27;20181;-73
2023/03/12 00:22:28;;;;;;;12.68;4.72;;;2.80;99.90;;;;;;5103984;27;20298;-73
2023/03/12 00:24:55;;;;;;;13.07;4.50;;;2.80;99.90;;;;;;5095399;28;20189;-73
2023/03/12 00:27:21;;;;;;;8.45;3.80;;;2.80;99.90;;;;;;5111485;28;20189;-73
2023/03/12 00:29:47;;;;;;;6.93;3.33;;;2.70;99.90;;;;;;5131677;27;20208;-74
2023/03/12 00:32:14;;;;;;;8.10;3.63;;;2.70;99.90;;;;;;5076934;28;20185;-74
2023/03/12 00:34:39;;;;;;;7.72;3.60;;;2.70;99.90;;;;;;5077306;28;20581;-75
2023/03/12 00:37:06;;;;;;;11.65;3.45;;;2.70;99.90;;;;;;5111959;28;20230;-75
2023/03/12 00:39:33;;;;;;;8.10;3.60;;;2.70;99.90;;;;;;5094536;28;20216;-74
2023/03/12 00:41:59;;;;;;;9.57;3.60;;;2.80;99.90;;;;;;5083716;28;20191;-75
2023/03/12 00:44:26;;;;;;;5.70;3.08;;;2.70;99.90;;;;;;5083569;28;20177;-75
2023/03/12 00:46:52;;;;;;;9.98;3.25;;;2.70;99.90;;;;;;5109357;27;20624;-74
2023/03/12 00:49:18;;;;;;;6.78;3.47;;;2.70;99.90;;;;;;5113154;27;20283;-76
2023/03/12 00:51:44;;;;;;;13.25;3.75;;;2.70;99.90;;;;;;5074595;28;20708;-73
2023/03/12 00:54:10;;;;;;;6.22;3.15;;;2.60;99.90;;;;;;5083431;28;20691;-74
2023/03/12 00:56:35;;;;;;;8.65;3.30;;;2.70;99.90;;;;;;5061312;28;20178;-73
2023/03/12 00:59:01;;;;;;;8.20;3.28;;;2.60;99.90;;;;;;5094625;28;20558;-74
2023/03/12 01:01:27;;;;;;;8.65;3.65;;;2.60;99.90;;;;;;5108606;28;20676;-73
2023/03/12 01:03:54;;;;;;;6.25;3.22;;;2.60;99.90;;;;;;5105741;28;20181;-73
2023/03/12 01:06:20;;;;;;;8.85;3.30;;;2.60;99.90;;;;;;5096645;28;20693;-73
2023/03/12 01:08:46;;;;;;;6.70;3.70;;;2.60;99.90;;;;;;5100270;28;20250;-72
2023/03/12 01:11:17;;;;;;;5.25;3.40;;;2.50;99.90;;;;;;5095380;28;20182;-73
2023/03/12 01:13:43;;;;;;;5.72;3.53;;;2.50;99.90;;;;;;5092948;28;20489;-73
2023/03/12 01:16:09;;;;;;;8.18;3.80;;;2.50;99.90;;;;;;5087867;28;20205;-74
2023/03/12 01:18:35;;;;;;;8.05;3.63;;;2.50;99.90;;;;;;5079016;28;20221;-75
2023/03/12 01:21:01;;;;;;;11.93;4.43;;;2.40;99.90;;;;;;5078332;28;20189;-73
2023/03/12 01:23:27;;;;;;;9.07;4.07;;;2.50;99.90;;;;;;5081195;28;20263;-73
2023/03/12 01:25:54;;;;;;;7.78;4.07;;;2.50;99.90;;;;;;5109320;28;20183;-73
2023/03/12 01:28:21;;;;;;;7.53;3.47;;;2.50;99.90;;;;;;5112152;28;20189;-74
2023/03/12 01:30:47;;;;;;;8.90;3.90;;;2.50;99.90;;;;;;5084643;28;20396;-74
2023/03/12 01:33:13;;;;;;;7.20;3.80;;;2.50;99.90;;;;;;5080791;28;20223;-73
2023/03/12 01:35:40;;;;;;;11.23;4.30;;;2.50;99.90;;;;;;5090256;28;20592;-75
2023/03/12 01:38:13;;;;;;;11.38;3.50;;;2.50;99.90;;;;;;5091157;28;20235;-73
2023/03/12 01:40:40;;;;;;;9.35;3.83;;;2.50;99.90;;;;;;5088939;28;20247;-74
2023/03/12 01:43:31;;;;;;;6.88;3.53;;;2.50;99.90;;;;;;5076916;28;20243;-74
2023/03/12 01:46:09;;;;;;;7.47;3.80;;;2.50;99.90;;;;;;5083850;28;20210;-73
2023/03/12 01:48:47;;;;;;;10.60;3.72;;;2.50;99.90;;;;;;5101020;28;20182;-73
2023/03/12 01:51:14;;;;;;;7.97;3.80;;;2.40;99.90;;;;;;5089785;28;20184;-73
2023/03/12 01:53:45;;;;;;;8.68;3.53;;;2.40;99.90;;;;;;5066719;28;20228;-75
2023/03/12 01:56:13;;;;;;;7.82;3.63;;;2.40;99.90;;;;;;5090025;28;20617;-74
2023/03/12 01:58:46;;;;;;;8.77;3.97;;;2.50;99.90;;;;;;5090348;28;20277;-73
2023/03/12 02:01:14;;;;;;;7.00;3.95;;;2.40;99.90;;;;;;5078129;28;20210;-74
2023/03/12 02:03:40;;;;;;;8.77;4.28;;;2.50;99.90;;;;;;5087240;28;20289;-75
2023/03/12 02:06:12;;;;;;;12.13;4.32;;;2.40;99.90;;;;;;5070662;28;20185;-74
2023/03/12 02:08:42;;;;;;;7.38;3.88;;;2.40;99.90;;;;;;5111317;28;20215;-73
2023/03/12 02:11:09;;;;;;;10.65;3.92;;;2.50;99.90;;;;;;5098702;28;20193;-73
2023/03/12 02:13:36;;;;;;;7.68;3.42;;;2.50;99.90;;;;;;5076004;28;21204;-75
2023/03/12 02:16:02;;;;;;;6.43;3.70;;;2.50;99.90;;;;;;5089699;28;20190;-74
2023/03/12 02:18:28;;;;;;;6.28;3.80;;;2.50;99.90;;;;;;5094684;28;20775;-73
2023/03/12 02:21:08;;;;;;;9.35;4.30;;;2.50;99.90;;;;;;5094132;28;20268;-73
2023/03/12 02:23:51;;;;;;;7.32;3.50;;;2.50;99.90;;;;;;5092291;28;20178;-76
2023/03/12 02:26:19;;;;;;;8.55;3.88;;;2.50;99.90;;;;;;5065372;28;20269;-73
2023/03/12 02:28:45;;;;;;;9.52;3.70;;;2.50;99.90;;;;;;5073736;28;20265;-73
2023/03/12 02:31:16;;;;;;;7.68;3.45;;;2.60;99.90;;;;;;5084005;28;20216;-73
2023/03/12 02:33:42;;;;;;;5.53;2.90;;;2.50;99.90;;;;;;5076333;28;20174;-73
2023/03/12 02:36:08;;;;;;;12.18;3.30;;;2.60;99.90;;;;;;5055513;28;20217;-73
2023/03/12 02:38:48;;;;;;;7.25;3.60;;;2.60;99.90;;;;;;5094306;28;20656;-72
2023/03/12 02:41:20;;;;;;;8.73;3.10;;;2.70;99.90;;;;;;5092869;28;20189;-74
2023/03/12 02:43:50;;;;;;;7.88;3.40;;;2.70;99.90;;;;;;5094265;28;20260;-73
2023/03/12 02:46:16;;;;;;;7.43;4.15;;;2.70;99.90;;;;;;5082487;28;20174;-75
2023/03/12 02:48:42;;;;;;;9.80;3.53;;;2.70;99.90;;;;;;5091181;28;20664;-74
2023/03/12 02:51:08;;;;;;;5.82;3.42;;;2.80;99.90;;;;;;5074155;28;20706;-73
2023/03/12 02:53:36;;;;;;;9.43;3.78;;;2.80;99.90;;;;;;5104329;28;20256;-74
2023/03/12 02:56:03;;;;;;;8.32;3.28;;;2.80;99.90;;;;;;5090914;28;20177;-74
2023/03/12 02:58:28;;;;;;;6.80;3.38;;;2.80;99.90;;;;;;5106163;27;20201;-74
2023/03/12 03:00:54;;;;;;;9.77;3.65;;;2.90;99.90;;;;;;5128409;27;20189;-74
2023/03/12 03:03:20;;;;;;;11.13;3.97;;;2.80;99.90;;;;;;5116175;27;20199;-73
2023/03/12 03:05:46;;;;;;;13.32;3.65;;;2.80;99.90;;;;;;5078331;27;20853;-73
2023/03/12 03:08:12;;;;;;;6.78;3.45;;;2.80;99.90;;;;;;5098671;27;20192;-73
2023/03/12 03:10:38;;;;;;;9.70;3.50;;;2.80;99.90;;;;;;5113960;27;20299;-75
2023/03/12 03:13:03;;;;;;;7.40;3.42;;;2.80;99.90;;;;;;5096867;28;20188;-74
2023/03/12 03:15:29;;;;;;;7.22;3.50;;;2.80;99.90;;;;;;5094793;27;20212;-76
2023/03/12 03:17:55;;;;;;;8.30;3.50;;;2.80;99.90;;;;;;5074146;28;20188;-74
2023/03/12 03:20:23;;;;;;;12.27;3.60;;;2.70;99.90;;;;;;5095983;28;20221;-75
2023/03/12 03:22:48;;;;;;;13.55;4.20;;;2.80;99.90;;;;;;5113038;27;20655;-75
2023/03/12 03:25:14;;;;;;;6.25;3.55;;;2.80;99.90;;;;;;5098885;28;20192;-76
2023/03/12 03:27:40;;;;;;;9.60;3.80;;;2.70;99.90;;;;;;5089077;27;20187;-75
2023/03/12 03:30:07;;;;;;;12.63;3.55;;;2.70;99.90;;;;;;5124298;27;20217;-74
2023/03/12 03:32:37;;;;;;;10.77;3.80;;;2.70;99.90;;;;;;5112327;27;20674;-74
2023/03/12 03:35:03;;;;;;;7.75;4.00;;;2.80;99.90;;;;;;5097001;27;20177;-73
2023/03/12 03:37:29;;;;;;;11.50;3.65;;;2.70;99.90;;;;;;5082266;28;20193;-74
2023/03/12 03:39:55;;;;;;;7.60;3.80;;;2.80;99.90;;;;;;5075186;28;20249;-73
2023/03/12 03:42:21;;;;;;;7.18;3.70;;;2.80;99.90;;;;;;5076640;27;20543;-74
2023/03/12 03:44:47;;;;;;;9.63;3.70;;;2.70;99.90;;;;;;5116871;27;20596;-75
2023/03/12 03:47:13;;;;;;;10.77;3.28;;;2.70;99.90;;;;;;5108676;27;20636;-73
2023/03/12 03:49:39;;;;;;;7.25;3.60;;;2.80;99.90;;;;;;5056019;27;20220;-76
2023/03/12 03:52:06;;;;;;;9.23;3.78;;;2.80;99.90;;;;;;5082988;28;20272;-74
2023/03/12 03:54:34;;;;;;;7.18;3.70;;;2.80;99.90;;;;;;5084813;27;20738;-75
2023/03/12 03:57:01;;;;;;;8.23;3.67;;;2.80;99.90;;;;;;5073939;28;20190;-74
2023/03/12 03:59:27;;;;;;;9.80;3.50;;;2.80;99.90;;;;;;5042625;28;20185;-74
2023/03/12 04:01:53;;;;;;;8.73;3.80;;;2.70;99.90;;;;;;5081515;27;20184;-74
2023/03/12 04:04:19;;;;;;;7.55;3.65;;;2.70;99.90;;;;;;5075515;28;20217;-74
2023/03/12 04:06:45;;;;;;;16.63;3.28;;;2.80;99.90;;;;;;5103586;27;20222;-74
2023/03/12 04:09:12;;;;;;;7.70;3.75;;;2.80;99.90;;;;;;5116537;27;20204;-74
2023/03/12 04:11:39;;;;;;;8.65;3.60;;;2.80;99.90;;;;;;5105208;28;20201;-74
2023/03/12 04:14:07;;;;;;;11.05;4.05;;;2.80;99.90;;;;;;5084698;28;20196;-77
2023/03/12 04:16:34;;;;;;;5.50;3.53;;;2.80;99.90;;;;;;5083499;28;20177;-73
2023/03/12 04:19:01;;;;;;;12.30;4.00;;;2.80;99.90;;;;;;5103870;27;20192;-73
2023/03/12 04:21:27;;;;;;;6.57;3.15;;;2.80;99.90;;;;;;5097012;27;20176;-74
2023/03/12 04:23:53;;;;;;;8.32;3.88;;;2.80;99.90;;;;;;5097789;28;20177;-74
2023/03/12 04:26:22;;;;;;;12.48;3.53;;;2.90;99.90;;;;;;5068859;28;20230;-74
2023/03/12 04:28:48;;;;;;;10.45;3.70;;;2.80;99.90;;;;;;5078095;28;20182;-74
2023/03/12 04:31:14;;;;;;;11.13;3.47;;;2.80;99.90;;;;;;5092050;28;20185;-73
2023/03/12 04:33:46;;;;;;;8.43;3.55;;;2.80;99.90;;;;;;5058504;28;20185;-74
2023/03/12 04:36:13;;;;;;;6.90;3.83;;;2.80;99.90;;;;;;5080312;28;20185;-75
2023/03/12 04:38:41;;;;;;;6.63;3.95;;;2.80;99.90;;;;;;5112772;28;20185;-73
2023/03/12 04:41:11;;;;;;;6.57;3.60;;;2.80;99.90;;;;;;5091532;28;20177;-74
2023/03/12 04:43:42;;;;;;;9.48;3.83;;;2.80;99.90;;;;;;5087790;27;20192;-74
2023/03/12 04:46:09;;;;;;;6.93;4.07;;;2.80;99.90;;;;;;5103808;27;20180;-74
2023/03/12 04:48:35;;;;;;;9.27;4.10;;;2.80;99.90;;;;;;5114831;27;20178;-76
2023/03/12 04:51:03;;;;;;;10.10;3.80;;;2.80;99.90;;;;;;5101380;27;20191;-73
2023/03/12 04:53:29;;;;;;;10.30;3.90;;;2.80;99.90;;;;;;5117278;27;20703;-73
2023/03/12 04:55:55;;;;;;;12.60;3.95;;;2.70;99.90;;;;;;5084066;28;20582;-74
2023/03/12 04:58:21;;;;;;;10.98;4.20;;;2.80;99.90;;;;;;5094472;28;20185;-73
2023/03/12 05:00:49;;;;;;;10.48;4.22;;;2.70;99.90;;;;;;5079107;28;20191;-74
2023/03/12 05:03:15;;;;;;;12.75;4.80;;;2.70;99.90;;;;;;5091043;28;20192;-79
2023/03/12 05:05:42;;;;;;;11.65;4.10;;;2.70;99.90;;;;;;5067594;28;20236;-73
2023/03/12 05:08:08;;;;;;;7.82;4.13;;;2.70;99.90;;;;;;5103458;28;20177;-74
2023/03/12 05:10:34;;;;;;;9.25;4.00;;;2.70;99.90;;;;;;5111281;28;20209;-74
2023/03/12 05:13:00;;;;;;;9.63;4.20;;;2.70;99.90;;;;;;5099010;28;20189;-74
2023/03/12 05:15:26;;;;;;;9.73;4.50;;;2.60;99.90;;;;;;5093052;28;20238;-78
2023/03/12 05:17:52;;;;;;;10.50;4.35;;;2.60;99.90;;;;;;5092858;28;20211;-74
2023/03/12 05:20:19;;;;;;;11.20;4.65;;;2.70;99.90;;;;;;5095131;28;20221;-74
2023/03/12 05:22:46;;;;;;;8.45;4.55;;;2.70;99.90;;;;;;5071327;28;20180;-74
2023/03/12 05:25:13;;;;;;;11.02;4.80;;;2.60;99.90;;;;;;5061876;28;20182;-73
2023/03/12 05:27:39;;;;;;;11.85;4.85;;;2.60;99.90;;;;;;5075300;28;20190;-73
2023/03/12 05:30:06;;;;;;;8.68;4.53;;;2.60;99.90;;;;;;5077707;28;20209;-74
2023/03/12 05:32:32;;;;;;;9.45;4.70;;;2.60;99.90;;;;;;5076375;28;20189;-74
2023/03/12 05:34:58;;;;;;;8.75;4.40;;;2.60;99.90;;;;;;5062689;28;20185;-73
2023/03/12 05:37:24;;;;;;;6.95;4.00;;;2.60;99.90;;;;;;5080063;28;20339;-73
2023/03/12 05:39:53;;;;;;;14.77;4.47;;;2.60;99.90;;;;;;5114777;28;20212;-73
2023/03/12 05:42:19;;;;;;;8.15;4.32;;;2.60;99.90;;;;;;5097414;28;20711;-74
2023/03/12 05:44:45;;;;;;;11.73;4.30;;;2.60;99.90;;;;;;5083740;28;20254;-78
2023/03/12 05:47:15;;;;;;;9.50;4.65;;;2.60;99.90;;;;;;5091303;27;20211;-74
2023/03/12 05:49:43;;;;;;;6.93;4.38;;;2.60;99.90;;;;;;5100566;28;20529;-74
2023/03/12 05:52:09;;;;;;;8.52;4.68;;;2.70;99.90;;;;;;5093316;28;20732;-74
2023/03/12 05:54:35;;;;;;;8.02;4.25;;;2.60;99.90;;;;;;5117004;28;20223;-72
2023/03/12 05:57:04;;;;;;;7.82;4.05;;;2.70;99.90;;;;;;5080804;27;20185;-73
2023/03/12 05:59:29;;;;;;;9.55;4.40;;;2.70;99.90;;;;;;5081888;28;20179;-75
2023/03/12 06:01:56;;;;;;;10.38;4.38;;;2.70;99.90;;;;;;5068798;28;20181;-75
2023/03/12 06:04:22;;;;;;;10.23;4.72;;;2.70;99.90;;;;;;5079409;27;20206;-74
2023/03/12 06:06:51;;;;;;;11.55;4.85;;;2.70;99.90;;;;;;5122958;27;20292;-74
2023/03/12 06:09:16;;;;;;;12.90;4.72;;;2.70;99.90;;;;;;5097359;28;20720;-76
2023/03/12 06:11:42;;;;;;;7.93;3.83;;;2.80;99.90;;;;;;5086044;28;20633;-81
2023/03/12 06:14:08;;;;;;;14.57;5.15;;;2.70;99.90;;;;;;5080497;28;20213;-75
2023/03/12 06:16:35;;;;;;;10.13;4.93;;;2.80;99.90;;;;;;5097493;27;20176;-76
2023/03/12 06:19:02;;;;;;;9.70;4.90;;;2.70;99.90;;;;;;5076781;28;20253;-75
2023/03/12 06:21:31;;;;;;;14.20;5.03;;;2.80;99.90;;;;;;5102608;27;20172;-74
2023/03/12 06:23:58;;;;;;;11.90;4.70;;;2.80;99.90;;;;;;5080193;28;20206;-74
2023/03/12 06:26:29;;;;;;;11.57;4.80;;;2.80;99.90;;;;;;5092720;28;20257;-76
2023/03/12 06:28:55;;;;;;;10.07;5.25;;;2.70;99.90;;;;;;5121020;27;20235;-74
2023/03/12 06:31:21;;;;;;;10.73;4.95;;;2.80;99.90;;;;;;5089176;28;20256;-73
2023/03/12 06:33:47;;;;;;;8.02;4.72;;;2.80;99.90;;;;;;5103783;27;20201;-79
2023/03/12 06:36:13;;;;;;;10.85;5.15;;;2.80;99.90;;;;;;5095370;27;20203;-74
2023/03/12 06:38:40;;;;;;;10.43;5.15;;;2.80;99.90;;;;;;5099000;27;20619;-81
2023/03/12 06:41:12;;;;;;;8.00;4.75;;;2.80;99.90;;;;;;5111105;27;20310;-75
2023/03/12 06:43:38;;;;;;;10.52;4.90;;;2.90;99.90;;;;;;5123861;27;20173;-75
2023/03/12 06:46:07;;;;;;;10.23;5.35;;;2.90;99.90;;;;;;5132362;27;20185;-74
2023/03/12 06:48:35;;;;;;;12.00;4.90;;;2.90;99.90;;;;;;5113375;28;20199;-74
2023/03/12 06:51:05;;;;;;;9.43;5.30;;;2.90;99.90;;;;;;5098511;27;20218;-73
2023/03/12 06:53:31;;;;;;;12.15;5.57;;;2.90;99.90;;;;;;5128826;27;20242;-74
2023/03/12 06:55:57;;;;;;;11.50;5.57;;;2.90;99.90;;;;;;5130406;27;20177;-75
2023/03/12 06:58:23;;;;;;;10.95;5.35;;;3.00;99.90;;;;;;5097187;28;20226;-74
2023/03/12 07:00:49;;;;;;;12.60;5.50;;;2.90;99.90;;;;;;5102876;28;20198;-74
2023/03/12 07:03:15;;;;;;;10.73;5.18;;;3.00;99.90;;;;;;5105257;28;20184;-73
2023/03/12 07:05:46;;;;;;;15.88;5.82;;;3.00;99.90;;;;;;5094714;28;20182;-75
2023/03/12 07:08:12;;;;;;;9.15;5.47;;;3.00;99.90;;;;;;5122639;27;20181;-75
2023/03/12 07:10:38;;;;;;;10.23;5.63;;;3.00;99.90;;;;;;5113356;27;20755;-77
2023/03/12 07:13:04;;;;;;;13.90;5.72;;;3.00;99.90;;;;;;5101723;28;20220;-75
2023/03/12 07:15:29;;;;;;;13.25;5.63;;;3.10;99.90;;;;;;5112847;28;20177;-78
2023/03/12 07:18:10;;;;;;;11.15;5.18;;;3.00;99.90;;;;;;5106716;28;20546;-74
2023/03/12 07:20:37;;;;;;;10.45;5.97;;;3.00;99.90;;;;;;5115657;27;20181;-74
2023/03/12 07:23:04;;;;;;;11.48;6.32;;;3.00;99.90;;;;;;5076850;28;20312;-73
2023/03/12 07:25:30;;;;;;;10.32;5.95;;;3.00;99.90;;;;;;5109419;28;20259;-76
2023/03/12 07:27:55;;;;;;;14.30;6.40;;;3.00;99.90;;;;;;5095245;28;20182;-74
2023/03/12 07:30:21;;;;;;;11.27;6.40;;;3.00;99.90;;;;;;5079023;28;20216;-73
2023/03/12 07:32:47;;;;;;;14.18;6.40;;;2.90;99.90;;;;;;5104622;28;20185;-73
2023/03/12 07:35:12;;;;;;;15.73;6.63;;;2.90;99.90;;;;;;5113992;28;20177;-76
2023/03/12 07:37:38;;;;;;;11.45;6.60;;;2.80;99.90;;;;;;5115353;27;20217;-74
2023/03/12 07:40:06;;;;;;;13.77;7.10;;;2.80;99.90;;;;;;5114867;28;20177;-74
2023/03/12 07:42:32;;;;;;;13.82;7.10;;;2.70;99.90;;;;;;5085422;28;20197;-75
2023/03/12 07:44:58;;;;;;;16.23;7.60;;;2.70;99.90;;;;;;5075882;28;20213;-74
2023/03/12 07:47:24;;;;;;;15.85;7.25;;;2.70;99.90;;;;;;5107375;27;20654;-74
2023/03/12 07:49:50;;;;;;;16.55;7.45;;;2.70;99.90;;;;;;5086354;28;20664;-74
2023/03/12 07:52:18;;;;;;;15.73;7.65;;;2.60;99.90;;;;;;5106837;27;20181;-74
2023/03/12 07:54:44;;;;;;;16.70;8.15;;;2.60;99.90;;;;;;5077692;28;20231;-74
2023/03/12 07:57:10;;;;;;;15.20;8.45;;;2.50;99.90;;;;;;5125390;27;20184;-75
2023/03/12 07:59:36;;;;;;;15.05;7.70;;;2.50;99.90;;;;;;5113613;27;20321;-74
2023/03/12 08:02:02;;;;;;;19.08;7.53;;;2.50;99.90;;;;;;5094524;28;20200;-74
2023/03/12 08:04:28;;;;;;;21.23;9.75;;;2.50;99.90;;;;;;5080390;28;21714;-75
2023/03/12 08:06:53;;;;;;;14.93;8.93;;;2.40;99.90;;;;;;5115491;27;20181;-74
2023/03/12 08:09:19;;;;;;;15.75;8.70;;;2.40;99.90;;;;;;5095460;28;20205;-74
2023/03/12 08:11:45;;;;;;;15.52;9.02;;;2.40;99.90;;;;;;5104198;27;20581;-73
2023/03/12 08:14:11;;;;;;;18.88;11.35;;;2.30;99.90;;;;;;5094888;28;20233;-73
2023/03/12 08:16:36;;;;;;;15.80;8.63;;;2.40;99.90;;;;;;5100887;27;20417;-81
2023/03/12 08:19:02;;;;;;;14.57;9.43;;;2.30;99.90;;;;;;5100870;27;20197;-77
2023/03/12 08:21:28;;;;;;;17.13;10.07;;;2.30;99.90;;;;;;5108387;27;20208;-73
2023/03/12 08:23:54;;;;;;;16.73;9.82;;;2.30;99.90;;;;;;5118455;27;20183;-73
2023/03/12 08:26:19;;;;;;;14.73;8.93;;;2.30;99.90;;;;;;5118835;27;20176;-73
2023/03/12 08:28:45;;;;;;;17.83;10.10;;;2.30;99.90;;;;;;5132316;27;20271;-73
2023/03/12 08:31:11;;;;;;;18.08;9.18;;;2.20;99.90;;;;;;5099946;28;20593;-73
2023/03/12 08:33:40;;;;;;;19.27;9.98;;;2.20;99.90;;;;;;5081231;27;20216;-75
2023/03/12 08:36:06;;;;;;;16.05;9.52;;;2.20;99.90;;;;;;5115216;27;20172;-74
2023/03/12 08:38:32;;;;;;;14.90;10.05;;;2.20;99.90;;;;;;5095832;28;20260;-75
2023/03/12 08:40:59;;;;;;;18.20;9.57;;;2.30;99.90;;;;;;5086544;28;20885;-74
2023/03/12 08:43:25;;;;;;;18.15;9.35;;;2.30;99.90;;;;;;5101216;27;20177;-73
2023/03/12 08:45:59;;;;;;;32.72;16.85;;;2.30;99.90;;;;;;5101166;28;20259;-75
2023/03/12 08:48:25;;;;;;;15.70;10.23;;;2.30;99.90;;;;;;5085676;28;20542;-74
2023/03/12 08:50:57;;;;;;;14.95;9.35;;;2.30;99.90;;;;;;5101093;28;20215;-79
2023/03/12 08:53:24;;;;;;;15.57;7.72;;;2.30;99.90;;;;;;5110451;28;20217;-73
2023/03/12 08:55:52;;;;;;;14.32;9.18;;;2.30;99.90;;;;;;5094260;27;20537;-73
2023/03/12 08:58:22;;;;;;;14.02;8.95;;;2.30;99.90;;;;;;5133606;27;20192;-74
2023/03/12 09:00:47;;;;;;;14.35;8.27;;;2.40;99.90;;;;;;5091480;28;20204;-74
2023/03/12 09:03:13;;;;;;;18.42;10.23;;;2.30;99.90;;;;;;5091917;28;20543;-73
2023/03/12 09:05:40;;;;;;;20.67;9.63;;;2.40;99.90;;;;;;5094618;28;20177;-74
2023/03/12 09:08:07;;;;;;;14.88;9.27;;;2.40;99.90;;;;;;5086059;28;20214;-75
2023/03/12 09:10:33;;;;;;;16.50;9.05;;;2.40;99.90;;;;;;5064043;28;20216;-74
2023/03/12 09:12:59;;;;;;;15.88;9.57;;;2.40;99.90;;;;;;5106403;28;20181;-74
2023/03/12 09:15:25;;;;;;;15.63;10.73;;;2.40;99.90;;;;;;5104342;28;20191;-77
2023/03/12 09:17:52;;;;;;;18.10;10.40;;;2.40;99.90;;;;;;5085078;28;20181;-74
2023/03/12 09:20:18;;;;;;;18.02;12.02;;;2.40;99.90;;;;;;5112106;28;20170;-74
2023/03/12 09:22:44;;;;;;;17.38;11.52;;;2.50;99.90;;;;;;5109493;28;20234;-73
2023/03/12 09:25:11;;;;;;;22.92;13.23;;;2.40;99.90;;;;;;5093379;28;20186;-74
2023/03/12 09:27:42;;;;;;;18.10;12.57;;;2.40;99.90;;;;;;5092191;28;20211;-74
2023/03/12 09:30:14;;;;;;;21.83;11.50;;;2.40;99.90;;;;;;5110328;28;20209;-73
2023/03/12 09:32:39;;;;;;;24.60;12.60;;;2.40;99.90;;;;;;5110968;28;20199;-73
2023/03/12 09:35:06;;;;;;;20.83;11.90;;;2.40;99.90;;;;;;5112842;28;20696;-75
2023/03/12 09:37:32;;;;;;;20.73;13.27;;;2.40;99.90;;;;;;5112712;28;20219;-73
2023/03/12 09:39:59;;;;;;;22.20;12.88;;;2.40;99.90;;;;;;5094020;28;20628;-74
2023/03/12 09:42:52;;;;;;;14.25;9.40;;;2.40;99.90;;;;;;5112841;28;20165;-74
2023/03/12 09:45:27;;;;;;;17.25;9.85;;;2.40;99.90;;;;;;5113098;28;20177;-74
2023/03/12 09:48:04;;;;;;;16.42;8.68;;;2.40;99.90;;;;;;5112810;28;20165;-74
2023/03/12 09:50:33;;;;;;;15.52;8.98;;;2.50;99.90;;;;;;5109841;28;20199;-76
2023/03/12 09:53:39;;;;;;;14.32;9.35;;;2.50;99.90;;;;;;5094647;28;20196;-74
2023/03/12 09:56:12;;;;;;;11.98;8.77;;;2.50;99.90;;;;;;5086511;28;20695;-77
2023/03/12 09:58:41;;;;;;;15.43;8.77;;;2.60;99.90;;;;;;5104041;28;20277;-74
2023/03/12 10:01:31;;;;;;;15.80;8.98;;;2.60;99.90;;;;;;5085701;28;20193;-74
2023/03/12 10:04:15;;;;;;;12.85;9.05;;;2.60;99.90;;;;;;5104025;28;20173;-73
2023/03/12 10:07:04;;;;;;;14.85;9.00;;;2.60;99.90;;;;;;5084195;28;20181;-76
2023/03/12 10:09:44;;;;;;;12.13;9.15;;;2.70;99.90;;;;;;5103999;28;20232;-74
2023/03/12 10:12:16;;;;;;;15.57;9.70;;;2.70;99.90;;;;;;5083794;28;20182;-73
2023/03/12 10:15:13;;;;;;;15.32;9.07;;;2.70;99.90;;;;;;5084622;28;20169;-75
2023/03/12 10:18:11;;;;;;;13.60;10.52;;;2.70;99.90;;;;;;5104778;28;20340;-75
2023/03/12 10:20:47;;;;;;;13.75;10.13;;;2.70;99.90;;;;;;5094462;28;20590;-73
2023/03/12 10:23:20;;;;;;;17.65;10.35;;;2.70;99.90;;;;;;5112438;28;20173;-73
2023/03/12 10:26:08;;;;;;;14.18;10.20;;;2.80;99.90;;;;;;5077546;28;20181;-74
2023/03/12 10:29:16;;;;;;;11.27;7.18;;;2.80;99.90;;;;;;5109363;28;20181;-73
2023/03/12 10:31:56;;;;;;;14.88;9.48;;;2.80;99.90;;;;;;5114471;28;20656;-74
2023/03/12 10:34:38;;;;;;;15.10;9.05;;;2.80;99.90;;;;;;5116264;28;20272;-74
2023/03/12 10:37:23;;;;;;;15.00;9.85;;;2.80;99.90;;;;;;5115976;28;20165;-81
2023/03/12 10:39:50;;;;;;;17.77;10.30;;;2.90;99.90;;;;;;5071124;28;20554;-74
2023/03/12 10:42:18;;;;;;;13.55;9.60;;;2.90;99.90;;;;;;5097968;28;20810;-74
2023/03/12 10:44:47;;;;;;;14.98;10.00;;;2.90;99.90;;;;;;5116127;28;20260;-74
2023/03/12 10:47:36;;;;;;;15.13;10.35;;;3.00;99.90;;;;;;5116192;28;20182;-74
2023/03/12 10:50:14;;;;;;;14.23;9.45;;;3.00;99.90;;;;;;5113004;28;20201;-74
2023/03/12 10:52:40;;;;;;;12.93;8.20;;;3.00;99.90;;;;;;5115599;28;20181;-74
2023/03/12 10:55:18;;;;;;;15.23;8.98;;;3.00;99.90;;;;;;5115542;28;20599;-73
2023/03/12 10:57:44;;;;;;;15.10;10.25;;;3.00;99.90;;;;;;5115695;28;20223;-74
2023/03/12 11:00:21;;;;;;;12.13;9.77;;;3.00;99.90;;;;;;5112061;28;20193;-73
2023/03/12 11:03:02;;;;;;;12.20;8.73;;;3.00;99.90;;;;;;5115386;28;20245;-73
2023/03/12 11:05:58;;;;;;;17.30;10.95;;;3.10;99.90;;;;;;5115537;28;20183;-75
2023/03/12 11:08:28;;;;;;;15.10;10.85;;;3.10;99.90;;;;;;5085706;28;20197;-79
2023/03/12 11:10:56;;;;;;;16.80;9.50;;;3.10;99.90;;;;;;5091886;28;20632;-74
2023/03/12 11:13:38;;;;;;;15.13;11.00;;;3.10;99.90;;;;;;5114743;28;20177;-73
2023/03/12 11:16:16;;;;;;;16.20;11.15;;;3.10;99.90;;;;;;5097045;28;20173;-74
2023/03/12 11:18:58;;;;;;;13.48;10.57;;;3.20;99.90;;;;;;5084470;27;20185;-73
2023/03/12 11:21:24;;;;;;;16.25;11.23;;;3.20;99.90;;;;;;5086258;28;20254;-74
2023/03/12 11:23:56;;;;;;;18.90;11.15;;;3.20;99.90;;;;;;5096717;28;20547;-76
2023/03/12 11:26:37;;;;;;;15.30;11.05;;;3.30;99.90;;;;;;5083194;27;20188;-75
2023/03/12 11:29:20;;;;;;;17.65;11.40;;;3.30;99.90;;;;;;5094902;27;20177;-81
2023/03/12 11:31:57;;;;;;;18.60;11.25;;;3.30;99.90;;;;;;5094346;27;20182;-78
2023/03/12 11:34:30;;;;;;;19.48;12.75;;;3.40;99.90;;;;;;5070123;27;20196;-77
2023/03/12 11:37:14;;;;;;;18.40;12.30;;;3.40;99.90;;;;;;5098135;27;20527;-74
2023/03/12 11:40:08;;;;;;;18.65;12.35;;;3.50;99.90;;;;;;5124385;27;20204;-78
2023/03/12 11:42:57;;;;;;;22.08;12.57;;;3.50;99.90;;;;;;5112526;28;20181;-75
2023/03/12 11:45:49;;;;;;;19.92;12.85;;;3.60;99.90;;;;;;5114773;27;20184;-74
2023/03/12 11:48:36;;;;;;;19.88;12.35;;;3.60;99.90;;;;;;5098777;28;20173;-73
2023/03/12 11:51:11;;;;;;;18.30;11.77;;;3.70;99.90;;;;;;5115880;27;20222;-73
2023/03/12 11:53:43;;;;;;;20.48;11.05;;;3.70;99.90;;;;;;5104395;27;20658;-74
2023/03/12 11:56:48;;;;;;;19.90;12.60;;;3.70;99.90;;;;;;5109983;28;20212;-73
2023/03/12 11:59:47;;;;;;;18.55;12.18;;;3.80;99.90;;;;;;5104294;27;20632;-75
2023/03/12 12:02:19;;;;;;;18.05;11.27;;;3.80;99.90;;;;;;5081837;27;20193;-73
2023/03/12 12:05:25;;;;;;;18.30;12.07;;;3.90;99.90;;;;;;5105151;27;20182;-74
2023/03/12 12:08:15;;;;;;;22.10;12.52;;;4.00;99.90;;;;;;5116318;27;20211;-74
2023/03/12 12:10:55;;;;;;;18.05;12.05;;;4.10;99.90;;;;;;5076451;28;20205;-75
2023/03/12 12:13:38;;;;;;;18.17;12.77;;;4.10;99.90;;;;;;5133372;27;20213;-74
2023/03/12 12:16:41;;;;;;;17.35;12.75;;;4.20;99.90;;;;;;5105791;28;20230;-75
2023/03/12 12:19:44;;;;;;;19.58;12.82;;;4.30;99.90;;;;;;5114371;27;20180;-74
2023/03/12 12:22:28;;;;;;;19.58;13.35;;;4.30;99.90;;;;;;5039678;28;20218;-74
2023/03/12 12:25:19;;;;;;;21.70;14.75;;;4.40;99.90;;;;;;5113031;28;20200;-74
2023/03/12 12:28:09;;;;;;;24.60;14.68;;;4.50;99.90;;;;;;5103822;27;20514;-73
2023/03/12 12:30:42;;;;;;;20.92;13.90;;;4.60;99.90;;;;;;5108705;28;20284;-73
2023/03/12 12:33:27;;;;;;;20.63;14.18;;;4.60;99.90;;;;;;5117373;27;20239;-73
2023/03/12 12:35:53;;;;;;;22.25;14.52;;;4.70;99.90;;;;;;5095883;28;20174;-74
2023/03/12 12:38:45;;;;;;;20.40;13.75;;;4.80;99.90;;;;;;5090475;28;20185;-74
2023/03/12 12:41:16;;;;;;;19.25;13.70;;;4.80;99.90;;;;;;5115191;27;20679;-73
2023/03/12 12:43:54;;;;;;;31.88;18.33;;;4.90;99.90;;;;;;5112062;28;20181;-73
2023/03/12 12:46:25;;;;;;;23.02;14.40;;;5.00;99.90;;;;;;5110946;28;20176;-75
2023/03/12 12:48:58;;;;;;;23.27;14.57;;;5.10;99.90;;;;;;5129555;27;20180;-73
2023/03/12 12:51:29;;;;;;;22.25;15.25;;;5.20;99.90;;;;;;5111748;27;20200;-74
2023/03/12 12:53:59;;;;;;;24.83;15.50;;;5.20;99.90;;;;;;5123678;27;20259;-75
2023/03/12 12:56:38;;;;;;;23.02;14.70;;;5.30;99.90;;;;;;5101474;27;20267;-74
2023/03/12 12:59:23;;;;;;;21.60;14.75;;;5.40;99.90;;;;;;5096335;27;20194;-75
2023/03/12 13:01:52;;;;;;;24.52;14.77;;;5.50;99.90;;;;;;5101976;28;20189;-75
2023/03/12 13:04:25;;;;;;;32.75;16.58;;;5.60;99.90;;;;;;5101450;28;20239;-77